Time;durP1;ratioP1;P1;durP2;ratioP2;P2;SDS_P1;SDS_P2;PMS_P1;PMS_P2;Temp;Humidity;BMP_temperature;BMP_pressure;BME280_temperature;BME280_humidity;BME280_pressure;Samples;Min_cycle;Max_cycle;Signal;HPM_P1;HPM_P2
2021/11/12 00:15:30;;;;;;;76.02;40.43;;;;;;;-0.80;76.12;100975.30;2115576;82;21058;-73
2021/11/12 00:18:35;;;;;;;84.03;42.93;;;;;;;-0.81;76.48;100970.19;2123961;82;21040;-72
2021/11/12 00:21:37;;;;;;;92.15;46.02;;;;;;;-0.79;76.61;100976.14;2117380;82;21054;-79
2021/11/12 00:24:38;;;;;;;97.85;46.92;;;;;;;-0.77;76.53;100969.11;2117436;82;21090;-74
2021/11/12 00:27:40;;;;;;;80.97;40.28;;;;;;;-0.78;76.52;100969.57;2118297;82;21538;-73
2021/11/12 00:31:02;;;;;;;83.27;42.25;;;;;;;-0.80;76.50;100974.47;2118398;82;21042;-72
2021/11/12 00:37:20;;;;;;;98.07;46.83;;;;;;;-0.71;76.65;100977.93;2092181;82;21709;-75
2021/11/12 00:40:24;;;;;;;91.37;45.65;;;;;;;-0.72;76.25;100977.09;2095455;82;21101;-73
2021/11/12 00:43:38;;;;;;;78.25;41.30;;;;;;;-0.73;76.47;100979.33;2118248;82;21018;-75
2021/11/12 00:46:42;;;;;;;90.17;46.42;;;;;;;-0.70;76.69;100970.05;2115847;82;21012;-71
2021/11/12 00:49:42;;;;;;;98.03;46.80;;;;;;;-0.66;76.64;100970.73;2121874;82;21352;-73
2021/11/12 00:55:53;;;;;;;118.50;49.15;;;;;;;-0.58;76.63;100962.09;2118165;82;21043;-74
2021/11/12 00:58:58;;;;;;;139.92;48.30;;;;;;;-0.53;76.75;100973.14;2117253;82;21324;-72
2021/11/12 01:02:00;;;;;;;139.07;51.48;;;;;;;-0.55;76.72;100973.67;2119099;82;21007;-72
2021/11/12 01:05:03;;;;;;;198.10;57.62;;;;;;;-0.56;76.77;100973.30;2113749;82;21030;-72
2021/11/12 01:08:08;;;;;;;174.07;61.80;;;;;;;-0.55;76.88;100973.67;2120153;82;21615;-74
2021/11/12 01:11:12;;;;;;;172.65;49.25;;;;;;;-0.56;76.86;100973.77;2120118;82;21091;-72
2021/11/12 01:14:22;;;;;;;183.72;49.90;;;;;;;-0.62;76.81;100977.94;2119620;82;21028;-77
2021/11/12 01:17:24;;;;;;;114.90;43.20;;;;;;;-0.64;76.94;100980.64;2122517;82;21021;-74
2021/11/12 01:20:29;;;;;;;108.63;39.70;;;;;;;-0.67;77.07;100986.00;2123927;82;20990;-72
2021/11/12 01:23:33;;;;;;;117.60;41.73;;;;;;;-0.64;77.33;100972.82;2123330;82;21005;-78
2021/11/12 01:26:35;;;;;;;153.42;45.78;;;;;;;-0.56;77.66;100975.91;2120473;82;21421;-73
2021/11/12 01:29:38;;;;;;;115.25;46.92;;;;;;;-0.50;77.42;100963.86;2115711;82;21032;-77
2021/11/12 01:32:41;;;;;;;118.13;44.45;;;;;;;-0.58;77.23;100972.98;2116776;82;21037;-72
2021/11/12 01:35:43;;;;;;;93.62;38.73;;;;;;;-0.61;77.11;100971.83;2122187;82;21407;-72
2021/11/12 01:38:45;;;;;;;124.18;47.58;;;;;;;-0.62;77.16;100973.59;2119367;82;21555;-72
2021/11/12 01:41:51;;;;;;;110.65;46.18;;;;;;;-0.64;77.19;100971.98;2115366;82;21097;-72
2021/11/12 01:44:59;;;;;;;134.47;45.28;;;;;;;-0.65;77.31;100978.93;2115921;82;21141;-75
2021/11/12 01:48:19;;;;;;;93.37;42.27;;;;;;;-0.66;77.32;100971.20;2120429;82;21032;-75
2021/11/12 01:51:26;;;;;;;133.97;43.52;;;;;;;-0.67;77.33;100970.83;2114263;82;21077;-72
2021/11/12 01:57:49;;;;;;;109.50;46.13;;;;;;;-0.74;77.36;100976.78;2082662;82;21051;-77
2021/11/12 02:00:41;;;;;;;104.12;38.45;;;;;;;-0.71;77.58;100977.93;2093351;82;21025;-72
2021/11/12 02:03:42;;;;;;;85.10;37.95;;;;;;;-0.67;77.67;100969.06;2121239;82;20967;-73
2021/11/12 02:06:45;;;;;;;69.97;37.45;;;;;;;-0.69;77.66;100961.30;2117446;81;21522;-73
2021/11/12 02:09:47;;;;;;;89.35;37.53;;;;;;;-0.70;77.65;100960.93;2113048;82;20999;-74
2021/11/12 02:15:53;;;;;;;85.62;37.28;;;;;;;-0.67;77.78;100954.72;2115948;82;21658;-76
2021/11/12 02:18:55;;;;;;;83.27;36.48;;;;;;;-0.65;77.87;100950.26;2118486;82;21016;-73
2021/11/12 02:22:07;;;;;;;102.05;35.92;;;;;;;-0.61;77.93;100942.69;2116695;82;21144;-72
2021/11/12 02:25:14;;;;;;;97.80;34.05;;;;;;;-0.61;77.88;100934.87;2120586;82;21093;-72
2021/11/12 02:28:16;;;;;;;78.33;34.15;;;;;;;-0.59;77.93;100943.47;2122543;82;21122;-72
2021/11/12 02:31:18;;;;;;;111.83;33.10;;;;;;;-0.58;77.87;100945.14;2115276;82;21446;-73
2021/11/12 02:34:20;;;;;;;101.67;35.60;;;;;;;-0.65;77.64;100946.34;2112474;82;21088;-74
2021/11/12 02:37:25;;;;;;;98.30;36.17;;;;;;;-0.81;77.56;100946.27;2118059;82;21465;-72
2021/11/12 02:40:26;;;;;;;80.57;33.28;;;;;;;-0.87;77.88;100945.70;2119270;82;21045;-72
2021/11/12 02:43:28;;;;;;;91.25;36.17;;;;;;;-0.84;78.17;100946.41;2112075;82;21073;-74
2021/11/12 02:46:30;;;;;;;116.75;37.33;;;;;;;-0.78;78.18;100947.88;2113236;82;21056;-73
2021/11/12 02:49:31;;;;;;;89.47;35.80;;;;;;;-0.70;78.27;100948.36;2121027;81;21651;-72
2021/11/12 02:52:33;;;;;;;69.27;33.70;;;;;;;-0.76;77.77;100951.23;2113933;82;20934;-73
2021/11/12 02:55:34;;;;;;;73.15;36.25;;;;;;;-0.90;77.72;100942.80;2115551;82;21449;-73
2021/11/12 02:58:39;;;;;;;90.28;37.95;;;;;;;-0.96;77.88;100958.27;2114660;82;21026;-72
2021/11/12 03:01:46;;;;;;;108.95;41.40;;;;;;;-1.00;77.87;100948.05;2117967;82;21490;-72
2021/11/12 03:04:47;;;;;;;120.08;38.53;;;;;;;-1.11;77.97;100955.53;2124217;82;21100;-71
2021/11/12 03:07:49;;;;;;;72.42;35.73;;;;;;;-1.12;78.34;100949.48;2117625;82;21066;-77
2021/11/12 03:10:53;;;;;;;75.92;34.95;;;;;;;-1.08;78.39;100951.48;2119349;82;21344;-76
2021/11/12 03:13:54;;;;;;;89.17;36.20;;;;;;;-1.00;78.44;100950.20;2121616;82;21031;-73
2021/11/12 03:16:55;;;;;;;95.12;38.23;;;;;;;-0.91;78.39;100955.43;2125548;82;21552;-73
2021/11/12 03:19:57;;;;;;;88.12;36.90;;;;;;;-0.87;78.45;100962.63;2120121;82;21560;-76
2021/11/12 03:23:06;;;;;;;90.10;35.15;;;;;;;-0.87;78.26;100961.33;2117734;82;20987;-72
2021/11/12 04:02:56;;;;;;;107.45;35.60;;;;;;;-0.92;78.37;100961.57;2138012;81;20420;-72
2021/11/12 05:35:15;;;;;;;74.32;38.55;;;;;;;-1.15;79.92;100989.53;2121292;82;21092;-71
2021/11/12 05:44:45;;;;;;;73.17;40.63;;;;;;;-0.86;79.75;100988.63;2121645;82;21009;-71
2021/11/12 05:51:12;;;;;;;73.62;38.02;;;;;;;-0.71;79.73;100991.80;2125451;82;21557;-74
2021/11/12 05:57:28;;;;;;;72.45;38.45;;;;;;;-0.52;79.67;101008.72;2116620;82;21827;-74
2021/11/12 06:00:29;;;;;;;69.10;38.40;;;;;;;-0.49;79.55;101011.17;2119035;82;21028;-80
2021/11/12 06:03:31;;;;;;;71.12;37.42;;;;;;;-0.42;79.65;101013.04;2117409;82;21006;-69
2021/11/12 06:06:33;;;;;;;67.70;37.33;;;;;;;-0.39;79.52;101012.05;2121372;82;21005;-71
2021/11/12 06:09:35;;;;;;;61.92;35.33;;;;;;;-0.34;79.48;101016.55;2112805;82;21622;-69
2021/11/12 06:12:36;;;;;;;67.42;36.70;;;;;;;-0.35;79.52;101013.58;2118104;82;21497;-70
2021/11/12 06:15:39;;;;;;;75.57;39.18;;;;;;;-0.39;79.51;101009.44;2119362;82;21494;-70
2021/11/12 06:18:40;;;;;;;68.85;37.55;;;;;;;-0.39;79.59;101005.06;2095611;82;21457;-72
2021/11/12 06:21:42;;;;;;;66.53;36.10;;;;;;;-0.44;79.62;101008.81;2114361;82;21077;-73
2021/11/12 06:24:47;;;;;;;67.60;34.98;;;;;;;-0.51;79.68;100999.13;2117805;81;21002;-75
2021/11/12 06:27:49;;;;;;;62.55;33.70;;;;;;;-0.52;79.85;101006.11;2098545;82;21053;-70
2021/11/12 06:30:50;;;;;;;67.65;35.68;;;;;;;-0.46;80.04;100999.75;2119312;82;21111;-72
2021/11/12 06:33:54;;;;;;;64.55;34.90;;;;;;;-0.32;80.16;100994.70;2121491;82;21020;-70
2021/11/12 06:36:56;;;;;;;73.80;37.60;;;;;;;-0.23;80.08;100999.92;2114027;82;21042;-73
2021/11/12 06:39:58;;;;;;;63.35;35.70;;;;;;;-0.17;80.10;101002.69;2121132;82;21073;-72
2021/11/12 06:43:21;;;;;;;56.53;33.42;;;;;;;-0.08;80.16;101004.39;2123877;82;21517;-74
2021/11/12 06:49:39;;;;;;;71.72;40.38;;;;;;;0.11;80.05;101009.50;2115738;82;21108;-75
2021/11/12 06:52:43;;;;;;;71.60;39.27;;;;;;;0.20;79.97;101005.61;2100094;82;21039;-77
2021/11/12 06:55:47;;;;;;;72.75;39.88;;;;;;;0.26;79.97;101009.67;2120343;82;21053;-72
2021/11/12 06:58:49;;;;;;;70.62;36.73;;;;;;;0.29;80.04;101007.73;2123084;82;21572;-72
2021/11/12 07:01:53;;;;;;;68.22;37.30;;;;;;;0.33;80.15;101006.64;2118177;82;20952;-70
2021/11/12 07:04:54;;;;;;;64.07;35.38;;;;;;;0.37;80.17;101008.19;2120286;82;21039;-73
2021/11/12 07:07:56;;;;;;;64.95;36.08;;;;;;;0.47;80.23;101006.39;2119601;82;21054;-73
2021/11/12 07:10:58;;;;;;;73.47;37.70;;;;;;;0.55;80.20;101011.59;2121249;82;21006;-80
2021/11/12 07:13:59;;;;;;;82.40;40.28;;;;;;;0.66;80.17;101004.50;2112444;82;21029;-82
2021/11/12 07:17:01;;;;;;;86.02;41.85;;;;;;;0.77;80.23;101006.08;2118446;82;21018;-75
2021/11/12 07:20:03;;;;;;;80.35;41.65;;;;;;;0.83;80.17;101003.13;2114871;82;22209;-73
2021/11/12 07:23:05;;;;;;;76.90;39.83;;;;;;;0.91;80.26;101003.19;2117686;82;21019;-78
2021/11/12 07:26:09;;;;;;;64.00;36.35;;;;;;;0.99;80.28;100995.78;2118688;82;21576;-83
2021/11/12 07:29:11;;;;;;;70.62;38.30;;;;;;;1.00;80.06;100997.45;2120669;82;21037;-77
2021/11/12 07:32:13;;;;;;;70.15;39.33;;;;;;;0.98;80.08;100998.83;2114302;82;21468;-77
2021/11/12 07:35:20;;;;;;;82.12;43.70;;;;;;;1.03;80.25;101003.81;2122068;82;21066;-74
2021/11/12 07:38:24;;;;;;;85.00;43.92;;;;;;;1.16;80.38;101002.22;2117659;82;21031;-70
2021/11/12 07:47:46;;;;;;;80.47;43.58;;;;;;;1.65;80.42;100995.52;2116249;82;21129;-71
2021/11/12 07:50:49;;;;;;;88.20;44.93;;;;;;;1.78;80.31;100996.98;2115157;82;21100;-70
2021/11/12 07:53:51;;;;;;;89.10;44.88;;;;;;;1.79;80.02;100999.49;2120687;82;21054;-70
2021/11/12 07:56:53;;;;;;;74.85;40.45;;;;;;;1.81;80.00;100998.11;2118955;82;21035;-73
2021/11/12 07:59:56;;;;;;;75.85;37.70;;;;;;;1.87;80.10;101007.38;2117986;82;21577;-72
2021/11/12 08:02:57;;;;;;;67.35;36.28;;;;;;;1.93;80.07;101000.47;2097803;82;21047;-72
2021/11/12 08:06:01;;;;;;;75.15;39.18;;;;;;;1.97;80.06;100998.04;2117863;82;21056;-72
2021/11/12 08:09:06;;;;;;;74.37;39.00;;;;;;;1.90;79.88;100998.88;2115011;82;21568;-72
2021/11/12 08:12:10;;;;;;;81.95;41.25;;;;;;;1.86;79.93;101001.75;2120298;82;21083;-72
2021/11/12 08:15:37;;;;;;;86.87;43.20;;;;;;;1.81;79.98;101006.44;2112351;82;22211;-71
2021/11/12 08:18:57;;;;;;;81.82;41.53;;;;;;;1.80;80.15;101002.95;2118800;82;21019;-73
2021/11/12 08:28:38;;;;;;;79.27;39.65;;;;;;;1.81;80.40;100999.42;2114665;82;21304;-72
2021/11/12 08:35:09;;;;;;;83.82;42.27;;;;;;;1.95;80.79;100992.91;2115960;82;20997;-72
2021/11/12 08:41:16;;;;;;;91.70;45.80;;;;;;;2.19;81.03;100997.14;2095895;81;20998;-75
2021/11/12 08:47:24;;;;;;;81.95;42.90;;;;;;;2.49;80.96;100991.01;2141564;81;21077;-72
2021/11/12 08:50:23;;;;;;;79.97;40.00;;;;;;;2.66;80.89;100989.50;2141279;81;20971;-73
2021/11/12 08:53:25;;;;;;;82.00;43.83;;;;;;;2.84;80.98;100993.22;2136665;81;21014;-73
2021/11/12 08:56:27;;;;;;;89.65;46.50;;;;;;;3.03;81.02;100987.20;2135328;81;20966;-74
2021/11/12 08:59:29;;;;;;;93.80;49.15;;;;;;;3.28;80.99;100989.58;2138794;81;21616;-74
2021/11/12 09:02:31;;;;;;;94.40;49.03;;;;;;;3.51;80.96;100974.48;2141754;81;21026;-73
2021/11/12 09:05:33;;;;;;;92.02;47.80;;;;;;;3.70;80.76;100978.06;2141360;81;20962;-74
2021/11/12 09:08:36;;;;;;;95.10;47.98;;;;;;;3.91;80.65;100971.01;2141343;81;21041;-75
2021/11/12 09:11:42;;;;;;;90.10;46.48;;;;;;;4.07;80.61;100969.03;2143443;81;21073;-73
2021/11/12 09:14:48;;;;;;;72.27;41.10;;;;;;;4.25;80.54;100966.92;2140631;81;21606;-74
2021/11/12 09:17:51;;;;;;;68.47;38.90;;;;;;;4.35;80.29;100960.10;2141923;81;21069;-73
2021/11/12 09:20:53;;;;;;;73.90;40.00;;;;;;;4.42;79.99;100954.80;2143492;81;20997;-75
2021/11/12 09:23:57;;;;;;;73.17;40.25;;;;;;;4.53;80.03;100951.87;2143749;81;21053;-73
2021/11/12 09:26:58;;;;;;;75.83;41.83;;;;;;;4.62;79.87;100949.94;2145651;81;21529;-75
2021/11/12 09:30:03;;;;;;;75.80;41.98;;;;;;;4.72;79.87;100950.47;2143493;81;21048;-75
2021/11/12 09:33:07;;;;;;;78.78;43.63;;;;;;;4.87;79.86;100953.83;2143862;81;20991;-74
2021/11/12 09:36:09;;;;;;;83.70;42.35;;;;;;;4.93;79.73;100959.13;2143902;81;20998;-76
2021/11/12 09:39:11;;;;;;;76.45;41.42;;;;;;;4.94;79.61;100951.58;2140473;81;21046;-73
2021/11/12 09:42:12;;;;;;;76.17;38.98;;;;;;;5.15;80.06;100943.47;2144069;81;21615;-72
2021/11/12 09:45:15;;;;;;;68.28;39.83;;;;;;;5.40;79.86;100941.65;2132611;81;21071;-73
2021/11/12 09:48:17;;;;;;;69.67;41.42;;;;;;;5.61;79.64;100941.87;2144542;81;21164;-74
2021/11/12 09:51:19;;;;;;;70.45;41.15;;;;;;;5.73;79.00;100947.52;2135621;81;21104;-78
2021/11/12 09:54:21;;;;;;;77.22;43.33;;;;;;;5.81;79.18;100943.83;2135806;81;20992;-74
2021/11/12 09:57:24;;;;;;;73.87;41.23;;;;;;;5.90;78.45;100937.51;2139455;81;21057;-75
2021/11/12 10:00:28;;;;;;;73.67;42.83;;;;;;;5.91;78.51;100931.27;2133452;81;21010;-74
2021/11/12 10:03:34;;;;;;;75.32;41.37;;;;;;;5.94;78.56;100933.70;2137763;81;21034;-75
2021/11/12 10:06:40;;;;;;;65.92;38.50;;;;;;;6.03;78.69;100931.22;2137863;81;20915;-72
2021/11/12 10:09:48;;;;;;;68.42;38.70;;;;;;;6.28;78.94;100930.17;2136566;81;21041;-80
2021/11/12 10:12:51;;;;;;;64.82;38.60;;;;;;;6.43;78.58;100917.59;2138916;81;21053;-78
2021/11/12 10:16:10;;;;;;;71.55;40.88;;;;;;;6.59;78.14;100917.23;2135517;81;21599;-78
2021/11/12 10:19:19;;;;;;;70.78;41.18;;;;;;;6.70;78.30;100910.62;2131994;81;21047;-78
2021/11/12 10:22:33;;;;;;;68.20;38.90;;;;;;;6.81;77.69;100915.01;2139830;81;20954;-77
2021/11/12 10:25:34;;;;;;;70.80;36.93;;;;;;;6.65;77.13;100912.78;2138731;81;21025;-78
2021/11/12 10:28:44;;;;;;;62.25;34.58;;;;;;;6.47;76.89;100907.14;2136526;81;21016;-78
2021/11/12 10:31:50;;;;;;;61.40;34.67;;;;;;;6.37;77.21;100903.57;2137304;81;21006;-75
2021/11/12 10:35:02;;;;;;;61.30;34.80;;;;;;;6.37;77.22;100898.78;2135283;81;21011;-75
2021/11/12 10:38:10;;;;;;;66.30;37.70;;;;;;;6.38;77.02;100887.27;2139699;81;20994;-75
2021/11/12 10:41:20;;;;;;;65.50;39.05;;;;;;;6.34;77.40;100881.89;2141698;81;20994;-71
2021/11/12 10:44:21;;;;;;;66.22;37.80;;;;;;;6.42;77.29;100874.19;2130738;81;21002;-74
2021/11/12 10:47:25;;;;;;;62.48;35.03;;;;;;;6.43;76.95;100878.04;2140628;81;21037;-74
2021/11/12 10:50:31;;;;;;;59.73;35.30;;;;;;;6.45;76.94;100873.98;2139082;81;21558;-74
2021/11/12 10:53:51;;;;;;;59.30;33.10;;;;;;;6.47;76.74;100865.45;2136753;81;20975;-74
2021/11/12 10:56:54;;;;;;;62.20;35.85;;;;;;;6.40;76.90;100862.95;2135325;81;21019;-74
2021/11/12 11:00:10;;;;;;;59.27;35.68;;;;;;;6.36;76.68;100853.59;2136904;81;21037;-74
2021/11/12 11:03:21;;;;;;;60.63;34.88;;;;;;;6.36;76.73;100851.79;2112256;81;21617;-74
2021/11/12 11:06:23;;;;;;;57.67;35.65;;;;;;;6.37;76.56;100845.58;2142130;81;21580;-70
2021/11/12 11:09:38;;;;;;;64.05;35.68;;;;;;;6.44;76.73;100844.11;2141273;81;21006;-73
2021/11/12 11:12:43;;;;;;;56.88;32.30;;;;;;;6.57;76.65;100844.47;2139427;81;21017;-72
2021/11/12 11:16:00;;;;;;;58.30;33.30;;;;;;;6.65;76.49;100838.11;2139038;81;21059;-71
2021/11/12 11:19:02;;;;;;;53.98;33.78;;;;;;;6.74;76.03;100834.23;2135690;81;21044;-71
2021/11/12 11:22:10;;;;;;;57.50;33.33;;;;;;;6.77;75.99;100829.67;2142740;81;21024;-71
2021/11/12 11:25:10;;;;;;;58.30;35.33;;;;;;;6.89;76.06;100829.98;2142720;81;21073;-72
2021/11/12 11:28:12;;;;;;;55.00;33.18;;;;;;;6.87;75.14;100829.26;2138985;81;20986;-72
2021/11/12 11:31:17;;;;;;;59.07;34.43;;;;;;;6.78;74.89;100815.52;2140993;81;21832;-73
2021/11/12 11:34:18;;;;;;;59.35;36.50;;;;;;;6.73;75.08;100806.19;2142362;81;20970;-72
2021/11/12 11:37:20;;;;;;;56.15;31.97;;;;;;;6.76;75.24;100805.10;2141507;81;21053;-71
2021/11/12 11:40:22;;;;;;;53.17;32.80;;;;;;;6.84;74.82;100812.37;2140124;81;22321;-71
2021/11/12 11:43:24;;;;;;;54.75;32.55;;;;;;;6.82;74.77;100801.95;2124758;82;20966;-72
2021/11/12 11:46:36;;;;;;;61.95;35.15;;;;;;;6.92;74.82;100800.70;2120852;82;21042;-71
2021/11/12 11:49:38;;;;;;;60.55;36.05;;;;;;;7.02;74.96;100791.08;2101606;82;21085;-72
2021/11/12 11:52:40;;;;;;;64.55;36.10;;;;;;;7.09;74.67;100784.31;2124948;82;21598;-74
2021/11/12 11:55:41;;;;;;;53.75;32.53;;;;;;;7.15;74.43;100786.46;2118619;82;21616;-73
2021/11/12 11:58:52;;;;;;;56.83;31.57;;;;;;;7.14;74.37;100787.41;2121534;82;21013;-71
2021/11/12 12:02:01;;;;;;;47.95;29.32;;;;;;;7.08;74.20;100787.92;2119466;82;21053;-72
2021/11/12 12:05:07;;;;;;;52.75;33.65;;;;;;;7.11;74.02;100774.47;2116221;82;21469;-71
2021/11/12 12:08:26;;;;;;;51.88;32.10;;;;;;;7.06;74.12;100771.86;2122828;82;21085;-73
2021/11/12 12:11:28;;;;;;;60.75;35.23;;;;;;;7.06;74.20;100771.38;2121681;82;21807;-72
2021/11/12 12:14:33;;;;;;;56.98;34.78;;;;;;;7.03;74.24;100768.99;2116025;82;21389;-71
2021/11/12 12:17:39;;;;;;;59.55;35.88;;;;;;;7.07;74.38;100766.95;2118737;82;20973;-73
2021/11/12 12:21:08;;;;;;;60.03;35.90;;;;;;;7.07;74.04;100765.15;2114434;82;20998;-74
2021/11/12 13:21:44;;;;;;;56.67;31.73;;;;;;;5.85;76.26;100717.44;2119636;82;21058;-72
2021/11/12 13:24:38;;;;;;;60.33;33.53;;;;;;;5.83;76.59;100725.96;2118884;82;22053;-80
2021/11/12 13:27:42;;;;;;;55.67;32.10;;;;;;;5.76;76.39;100723.44;2118791;82;21039;-78
2021/11/12 13:30:48;;;;;;;57.48;32.83;;;;;;;5.78;76.53;100723.34;2121886;82;21053;-82
2021/11/12 13:33:54;;;;;;;55.05;34.10;;;;;;;5.79;76.53;100720.56;2115414;82;21061;-79
2021/11/12 13:36:56;;;;;;;59.38;34.48;;;;;;;5.76;76.45;100715.55;2119919;82;20952;-86
2021/11/12 13:40:13;;;;;;;64.97;37.48;;;;;;;5.75;76.61;100715.20;2118157;82;21041;-80
2021/11/12 13:43:25;;;;;;;61.53;36.13;;;;;;;5.71;76.57;100707.16;2134990;81;21003;-78
2021/11/12 13:46:28;;;;;;;66.53;36.42;;;;;;;5.72;76.65;100706.22;2138888;81;21539;-79
2021/11/12 13:49:36;;;;;;;66.42;36.08;;;;;;;5.74;76.55;100706.92;2138818;81;21559;-78
2021/11/12 13:52:42;;;;;;;66.02;36.70;;;;;;;5.71;76.48;100717.70;2141646;81;21033;-78
2021/11/12 13:55:45;;;;;;;56.98;31.95;;;;;;;5.73;76.51;100722.38;2139393;81;21029;-72
2021/11/12 13:58:47;;;;;;;78.45;41.25;;;;;;;5.75;76.27;100709.09;2139592;81;20981;-74
2021/11/12 14:02:03;;;;;;;77.20;41.30;;;;;;;5.73;76.13;100706.57;2134340;81;21028;-74
2021/11/12 14:05:10;;;;;;;77.58;40.35;;;;;;;5.68;76.21;100702.14;2135203;81;20961;-76
2021/11/12 14:08:13;;;;;;;76.65;41.20;;;;;;;5.66;76.27;100698.81;2135464;81;20943;-74
2021/11/12 14:11:29;;;;;;;86.70;42.67;;;;;;;5.67;76.40;100695.21;2137339;81;21040;-75
2021/11/12 14:14:32;;;;;;;80.97;42.65;;;;;;;5.65;76.22;100694.48;2137446;81;21010;-75
2021/11/12 14:17:38;;;;;;;77.97;41.23;;;;;;;5.68;76.30;100694.24;2129058;81;21066;-74
2021/11/12 14:20:40;;;;;;;84.70;40.92;;;;;;;5.68;75.96;100696.88;2137268;81;21081;-74
2021/11/12 14:27:35;;;;;;;92.95;42.38;;;;;;;5.66;75.91;100692.69;2140433;81;20971;-76
2021/11/12 14:30:59;;;;;;;95.07;45.67;;;;;;;5.62;75.67;100692.09;2144031;81;21057;-76
2021/11/12 14:34:30;;;;;;;91.37;45.65;;;;;;;5.57;75.68;100695.56;2144039;81;21048;-75
2021/11/12 14:37:16;;;;;;;100.97;46.88;;;;;;;5.56;75.68;100689.95;2134438;81;21122;-76
2021/11/12 14:40:10;;;;;;;91.28;46.83;;;;;;;5.51;75.62;100687.67;2140521;81;21568;-75
2021/11/12 14:44:07;;;;;;;91.60;45.12;;;;;;;5.48;75.65;100676.07;2126777;81;21066;-74
2021/11/12 14:49:39;;;;;;;99.17;49.33;;;;;;;5.46;75.68;100666.61;2111593;82;21061;-76
2021/11/12 14:52:41;;;;;;;94.28;47.45;;;;;;;5.38;75.70;100658.86;2114369;82;21505;-75
2021/11/12 14:55:46;;;;;;;91.28;46.45;;;;;;;5.36;75.84;100671.77;2117468;82;21008;-76
2021/11/12 14:58:56;;;;;;;87.02;44.85;;;;;;;5.36;75.91;100668.66;2123987;82;20971;-75
2021/11/12 15:01:56;;;;;;;86.02;44.85;;;;;;;5.36;75.91;100658.13;2113482;82;21038;-77
2021/11/12 15:04:58;;;;;;;83.58;43.65;;;;;;;5.38;75.95;100638.29;2122039;82;21664;-78
2021/11/12 15:08:22;;;;;;;82.17;44.58;;;;;;;5.37;75.86;100652.38;2114602;82;21512;-75
2021/11/12 15:11:10;;;;;;;77.67;42.25;;;;;;;5.35;75.86;100645.94;2113012;82;21086;-75
2021/11/12 15:14:15;;;;;;;86.05;45.78;;;;;;;5.34;75.83;100646.87;2115185;82;22271;-75
2021/11/12 15:17:15;;;;;;;84.30;41.75;;;;;;;5.33;75.94;100648.33;2112312;82;20995;-75
2021/11/12 15:20:17;;;;;;;70.42;36.60;;;;;;;5.31;75.86;100646.30;2119764;82;21023;-76
2021/11/12 15:23:34;;;;;;;69.45;35.43;;;;;;;5.25;75.68;100650.72;2123087;82;20964;-75
2021/11/12 15:26:36;;;;;;;72.30;37.28;;;;;;;5.16;75.75;100651.79;2114531;82;21358;-75
2021/11/12 15:29:37;;;;;;;68.10;36.83;;;;;;;5.12;75.79;100648.19;2118154;82;21042;-76
2021/11/12 15:32:38;;;;;;;72.08;38.90;;;;;;;5.11;75.89;100652.62;2119470;82;21000;-76
2021/11/12 15:35:39;;;;;;;74.53;39.33;;;;;;;5.10;75.93;100652.75;2118597;82;21490;-75
2021/11/12 15:38:53;;;;;;;76.40;40.23;;;;;;;5.09;75.91;100648.43;2118764;82;21061;-78
2021/11/12 15:48:25;;;;;;;79.25;42.93;;;;;;;5.09;75.94;100649.75;2125360;82;21070;-74
2021/11/12 15:51:42;;;;;;;80.42;43.02;;;;;;;5.08;76.07;100650.23;2121024;82;21007;-74
2021/11/12 16:07:21;;;;;;;100.12;52.48;;;;;;;5.09;76.21;100655.01;2083977;82;21042;-75
2021/11/12 16:13:26;;;;;;;103.95;54.00;;;;;;;5.09;76.29;100653.69;2118565;82;20987;-76
2021/11/12 16:19:42;;;;;;;106.30;55.67;;;;;;;5.08;76.42;100656.80;2122944;82;21038;-80
2021/11/12 16:26:02;;;;;;;105.35;54.05;;;;;;;5.08;76.41;100648.08;2113054;82;21062;-75
2021/11/12 16:32:38;;;;;;;102.47;51.70;;;;;;;5.09;76.57;100653.69;2119083;82;21051;-75
2021/11/12 16:35:37;;;;;;;115.05;57.88;;;;;;;5.10;76.62;100664.11;2118357;82;20990;-79
2021/11/12 16:38:39;;;;;;;106.75;56.23;;;;;;;5.11;76.67;100661.00;2116801;82;20995;-73
2021/11/12 16:41:52;;;;;;;105.17;57.33;;;;;;;5.12;76.68;100667.92;2120489;82;21640;-80
2021/11/12 16:51:03;;;;;;;101.90;54.90;;;;;;;5.12;76.67;100662.20;2116139;82;21019;-74
2021/11/12 16:57:40;;;;;;;113.45;57.27;;;;;;;5.07;76.85;100644.62;2122680;82;21045;-73
2021/11/12 17:48:41;;;;;;;120.30;55.58;;;;;;;5.03;78.23;100638.39;2116665;82;21012;-74
2021/11/12 18:01:55;;;;;;;100.25;50.50;;;;;;;5.03;78.35;100628.70;2112611;82;21443;-75
2021/11/12 18:05:10;;;;;;;109.85;53.10;;;;;;;5.02;78.36;100631.47;2114938;82;21015;-74
2021/11/12 18:11:53;;;;;;;123.82;56.98;;;;;;;5.02;78.54;100639.35;2121878;82;21617;-76
2021/11/12 18:21:44;;;;;;;111.15;52.88;;;;;;;5.03;78.62;100616.86;2116702;82;21112;-74
2021/11/12 21:43:54;;;;;;;96.15;46.28;;;;;;;5.16;79.60;100437.88;2139349;81;21022;-72
2021/11/12 21:46:49;;;;;;;88.30;45.65;;;;;;;5.16;79.72;100440.50;2121156;82;21545;-73
2021/11/12 21:49:50;;;;;;;95.72;45.15;;;;;;;5.16;79.62;100438.70;2116185;82;21628;-72
2021/11/12 21:52:52;;;;;;;92.25;45.33;;;;;;;5.18;79.63;100435.96;2127576;82;21019;-72
2021/11/12 21:55:55;;;;;;;84.50;42.35;;;;;;;5.19;79.65;100432.84;2120866;82;21005;-72
2021/11/12 21:58:57;;;;;;;88.27;42.38;;;;;;;5.18;79.78;100433.33;2115775;82;21516;-72
2021/11/12 22:01:59;;;;;;;79.85;41.42;;;;;;;5.18;79.71;100428.07;2120395;82;21037;-71
2021/11/12 22:05:02;;;;;;;82.70;41.33;;;;;;;5.20;79.68;100429.24;2115727;82;21149;-71
2021/11/12 22:08:04;;;;;;;80.45;41.18;;;;;;;5.21;79.62;100429.13;2120900;82;22379;-72
2021/11/12 22:11:09;;;;;;;81.47;40.38;;;;;;;5.22;79.63;100417.64;2119737;82;21520;-72
2021/11/12 22:14:11;;;;;;;79.27;41.33;;;;;;;5.24;79.62;100422.79;2119267;82;20997;-72
2021/11/12 22:17:13;;;;;;;87.33;40.83;;;;;;;5.24;79.56;100416.21;2113129;82;21057;-73
2021/11/12 22:20:17;;;;;;;82.47;39.98;;;;;;;5.27;79.55;100416.79;2120679;82;21541;-71
2021/11/12 22:23:19;;;;;;;91.80;44.55;;;;;;;5.26;79.53;100415.09;2116992;82;21042;-75
2021/11/12 22:26:22;;;;;;;87.53;43.98;;;;;;;5.26;79.60;100413.78;2114941;82;21557;-72
2021/11/12 22:29:23;;;;;;;82.85;44.15;;;;;;;5.26;79.60;100407.20;2117582;82;21018;-74
2021/11/12 22:32:25;;;;;;;87.33;44.48;;;;;;;5.25;79.55;100402.09;2122048;82;22545;-74
2021/11/12 22:35:27;;;;;;;84.22;43.05;;;;;;;5.24;79.61;100393.36;2118434;82;21514;-75
2021/11/12 22:38:28;;;;;;;84.97;44.03;;;;;;;5.23;79.54;100390.36;2114579;82;20998;-72
2021/11/12 22:41:30;;;;;;;90.75;45.08;;;;;;;5.23;79.60;100396.94;2115844;82;20990;-74
2021/11/12 22:44:34;;;;;;;99.85;46.25;;;;;;;5.23;79.65;100395.62;2120015;82;21054;-72
2021/11/12 22:47:36;;;;;;;88.17;44.80;;;;;;;5.22;79.65;100399.22;2109517;82;21015;-73
2021/11/12 22:50:41;;;;;;;98.27;46.25;;;;;;;5.22;79.62;100391.33;2114373;82;20979;-73
2021/11/12 22:53:42;;;;;;;88.10;44.23;;;;;;;5.23;79.65;100387.73;2120241;82;21030;-75
2021/11/12 22:56:44;;;;;;;91.90;46.45;;;;;;;5.24;79.76;100384.64;2117391;82;20998;-73
2021/11/12 22:59:47;;;;;;;96.47;47.93;;;;;;;5.22;79.75;100375.55;2120802;82;21038;-73
2021/11/12 23:02:53;;;;;;;97.02;46.90;;;;;;;5.23;79.73;100376.37;2114558;82;21000;-73
2021/11/12 23:05:55;;;;;;;91.15;46.42;;;;;;;5.22;79.74;100370.28;2117184;82;20974;-73
2021/11/12 23:08:56;;;;;;;95.95;47.05;;;;;;;5.20;79.74;100373.52;2116750;82;21056;-73
2021/11/12 23:11:58;;;;;;;99.58;47.88;;;;;;;5.19;79.84;100363.96;2107018;82;21084;-73
2021/11/12 23:15:00;;;;;;;91.17;45.90;;;;;;;5.19;79.95;100357.38;2123029;82;20991;-73
2021/11/12 23:18:03;;;;;;;105.20;50.15;;;;;;;5.18;79.88;100366.25;2113854;82;21076;-73
2021/11/12 23:21:06;;;;;;;103.22;49.23;;;;;;;5.17;79.90;100341.71;2110806;82;21017;-74
2021/11/12 23:24:07;;;;;;;102.97;51.00;;;;;;;5.16;80.09;100336.59;2119570;82;21142;-73
2021/11/12 23:27:09;;;;;;;103.45;50.80;;;;;;;5.15;80.00;100336.22;2123630;82;22199;-73
2021/11/12 23:30:11;;;;;;;106.55;51.40;;;;;;;5.16;80.04;100357.64;2112452;82;21019;-73